createdAt,value
2022-08-23T00:00:58.608Z,18.89
2022-08-23T00:01:58.629Z,18.86
2022-08-23T00:02:58.690Z,18.89
2022-08-23T00:03:58.674Z,18.92
2022-08-23T00:05:09.457Z,18.88
2022-08-23T00:05:58.721Z,18.88
2022-08-23T00:06:58.737Z,18.89
2022-08-23T00:07:58.866Z,18.88
2022-08-23T00:08:58.789Z,18.89
2022-08-23T00:09:58.801Z,18.88
2022-08-23T00:10:58.822Z,18.85
2022-08-23T00:11:58.844Z,18.83
2022-08-23T00:12:58.867Z,18.86
2022-08-23T00:13:58.884Z,18.86
2022-08-23T00:14:58.909Z,18.92
2022-08-23T00:15:58.932Z,18.92
2022-08-23T00:16:58.957Z,18.88
2022-08-23T00:17:59.102Z,18.91
2022-08-23T00:18:59.223Z,18.89
2022-08-23T00:19:59.016Z,18.89
2022-08-23T00:20:59.039Z,18.86
2022-08-23T00:21:59.058Z,18.94
2022-08-23T00:22:59.080Z,18.89
2022-08-23T00:23:59.104Z,18.89
2022-08-23T00:24:59.126Z,18.89
2022-08-23T00:25:59.146Z,18.86
2022-08-23T00:26:59.167Z,18.86
2022-08-23T00:27:59.350Z,18.83
2022-08-23T00:28:59.212Z,18.92
2022-08-23T00:29:59.231Z,18.92
2022-08-23T00:30:59.253Z,18.89
2022-08-23T00:31:59.272Z,18.88
2022-08-23T00:32:59.296Z,18.88
2022-08-23T00:33:59.317Z,18.83
2022-08-23T00:34:59.338Z,18.89
2022-08-23T00:35:59.368Z,18.91
2022-08-23T00:36:59.382Z,18.91
2022-08-23T00:38:33.328Z,18.88
2022-08-23T00:38:59.427Z,18.89
2022-08-23T00:39:59.529Z,18.91
2022-08-23T00:40:59.468Z,18.83
2022-08-23T00:41:59.487Z,18.91
2022-08-23T00:42:59.507Z,18.91
2022-08-23T00:43:59.531Z,18.88
2022-08-23T00:44:59.552Z,18.81
2022-08-23T00:45:59.573Z,18.89
2022-08-23T00:46:59.595Z,18.82
2022-08-23T00:47:59.767Z,18.89
2022-08-23T00:48:59.638Z,18.92
2022-08-23T00:49:59.659Z,18.88
2022-08-23T00:50:59.681Z,18.89
2022-08-23T00:51:59.700Z,18.89
2022-08-23T00:52:59.723Z,18.86
2022-08-23T00:53:59.745Z,18.89
2022-08-23T00:54:59.766Z,18.83
2022-08-23T00:55:59.788Z,18.91
2022-08-23T00:56:59.811Z,18.88
2022-08-23T00:58:00.043Z,18.91
2022-08-23T00:58:59.856Z,18.86
2022-08-23T00:59:59.875Z,18.91
2022-08-23T01:00:59.897Z,18.85
2022-08-23T01:01:59.952Z,18.79
2022-08-23T01:02:59.936Z,18.88
2022-08-23T01:04:04.649Z,18.92
2022-08-23T01:04:59.980Z,18.94
2022-08-23T01:06:00.000Z,18.89
2022-08-23T01:07:00.074Z,18.81
2022-08-23T01:08:00.230Z,18.83
2022-08-23T01:09:00.176Z,18.86
2022-08-23T01:10:00.111Z,18.88
2022-08-23T01:11:00.109Z,18.83
2022-08-23T01:12:00.131Z,18.82
2022-08-23T01:13:00.150Z,18.79
2022-08-23T01:14:00.171Z,18.88
2022-08-23T01:15:00.196Z,18.85
2022-08-23T01:16:00.216Z,18.85
2022-08-23T01:17:00.237Z,18.79
2022-08-23T01:18:00.471Z,18.85
2022-08-23T01:19:00.279Z,18.85
2022-08-23T01:20:00.301Z,18.81
2022-08-23T01:21:00.322Z,18.79
2022-08-23T01:22:00.342Z,18.82
2022-08-23T01:23:00.366Z,18.79
2022-08-23T01:24:00.387Z,18.79
2022-08-23T01:25:08.096Z,18.79
2022-08-23T01:26:00.428Z,18.73
2022-08-23T01:27:00.453Z,18.88
2022-08-23T01:28:00.803Z,18.74
2022-08-23T01:29:00.494Z,18.73
2022-08-23T01:30:00.518Z,18.82
2022-08-23T01:31:00.545Z,18.78
2022-08-23T01:32:00.558Z,18.78
2022-08-23T01:33:00.579Z,18.73
2022-08-23T01:34:00.605Z,18.78
2022-08-23T01:35:00.622Z,18.81
2022-08-23T01:36:00.657Z,18.81
2022-08-23T01:37:00.678Z,18.79
2022-08-23T01:38:00.882Z,18.81
2022-08-23T01:39:00.714Z,18.68
2022-08-23T01:40:00.810Z,18.70
2022-08-23T01:41:00.749Z,18.73
2022-08-23T01:42:00.770Z,18.78
2022-08-23T01:43:00.792Z,18.70
2022-08-23T01:44:00.811Z,18.74
2022-08-23T01:45:00.836Z,18.71
2022-08-23T01:46:00.855Z,18.81
2022-08-23T01:47:00.877Z,18.78
2022-08-23T01:48:01.082Z,18.70
2022-08-23T01:49:00.920Z,18.67
2022-08-23T01:50:00.939Z,18.71
2022-08-23T01:51:00.961Z,18.68
2022-08-23T01:52:00.985Z,18.71
2022-08-23T01:53:01.104Z,18.63
2022-08-23T01:54:01.027Z,18.66
2022-08-23T01:55:01.046Z,18.68
2022-08-23T01:56:01.068Z,18.66
2022-08-23T01:57:01.093Z,18.76
2022-08-23T01:58:01.112Z,18.67
2022-08-23T01:59:01.132Z,18.70
2022-08-23T02:00:01.152Z,18.63
2022-08-23T02:01:01.175Z,18.68
2022-08-23T02:02:01.247Z,18.66
2022-08-23T02:03:01.462Z,18.61
2022-08-23T02:04:04.205Z,18.66
2022-08-23T02:05:01.262Z,18.66
2022-08-23T02:06:01.281Z,18.63
2022-08-23T02:07:01.303Z,18.66
2022-08-23T02:08:01.470Z,18.66
2022-08-23T02:09:01.345Z,18.63
2022-08-23T02:10:01.366Z,18.66
2022-08-23T02:11:01.388Z,18.58
2022-08-23T02:12:01.411Z,18.67
2022-08-23T02:13:01.429Z,18.67
2022-08-23T02:14:01.452Z,18.67
2022-08-23T02:15:01.473Z,18.60
2022-08-23T02:16:01.495Z,18.63
2022-08-23T02:17:03.922Z,18.60
2022-08-23T02:18:01.685Z,18.66
2022-08-23T02:19:01.559Z,18.60
2022-08-23T02:20:01.580Z,18.66
2022-08-23T02:21:01.654Z,18.64
2022-08-23T02:22:01.621Z,18.61
2022-08-23T02:23:01.810Z,18.57
2022-08-23T02:24:01.664Z,18.58
2022-08-23T02:25:01.683Z,18.57
2022-08-23T02:26:01.706Z,18.60
2022-08-23T02:27:01.893Z,18.60
2022-08-23T02:28:01.749Z,18.66
2022-08-23T02:29:01.771Z,18.60
2022-08-23T02:30:02.014Z,18.64
2022-08-23T02:31:01.812Z,18.63
2022-08-23T02:32:01.833Z,18.61
2022-08-23T02:33:01.987Z,18.66
2022-08-23T02:34:01.873Z,18.60
2022-08-23T02:35:05.202Z,18.67
2022-08-23T02:36:01.921Z,18.60
2022-08-23T02:37:01.942Z,18.64
2022-08-23T02:38:02.008Z,18.61
2022-08-23T02:39:01.980Z,18.64
2022-08-23T02:40:02.075Z,18.63
2022-08-23T02:41:02.024Z,18.63
2022-08-23T02:42:02.047Z,18.63
2022-08-23T02:43:02.071Z,18.61
2022-08-23T02:44:02.089Z,18.64
2022-08-23T02:45:02.107Z,18.61
2022-08-23T02:46:02.135Z,18.60
2022-08-23T02:47:02.150Z,18.61
2022-08-23T02:48:02.296Z,18.61
2022-08-23T02:49:02.192Z,18.64
2022-08-23T02:50:02.239Z,18.63
2022-08-23T02:51:02.236Z,18.63
2022-08-23T02:52:02.259Z,18.68
2022-08-23T02:53:02.277Z,18.61
2022-08-23T02:54:02.306Z,18.60
2022-08-23T02:55:02.320Z,18.58
2022-08-23T02:56:02.344Z,18.61
2022-08-23T02:57:02.362Z,18.64
2022-08-23T02:58:02.446Z,18.67
2022-08-23T02:59:02.402Z,18.64
2022-08-23T03:00:02.441Z,18.64
2022-08-23T03:01:02.448Z,18.66
2022-08-23T03:02:02.506Z,18.66
2022-08-23T03:03:02.488Z,18.64
2022-08-23T03:04:02.512Z,18.70
2022-08-23T03:05:02.534Z,18.66
2022-08-23T03:06:24.447Z,18.60
2022-08-23T03:07:02.582Z,18.66
2022-08-23T03:08:02.624Z,18.68
2022-08-23T03:09:02.619Z,18.67
2022-08-23T03:10:02.688Z,18.61
2022-08-23T03:11:02.661Z,18.66
2022-08-23T03:12:02.684Z,18.61
2022-08-23T03:13:02.709Z,18.64
2022-08-23T03:14:02.723Z,18.61
2022-08-23T03:15:02.753Z,18.66
2022-08-23T03:16:02.765Z,18.66
2022-08-23T03:17:02.785Z,18.71
2022-08-23T03:18:02.937Z,18.61
2022-08-23T03:19:02.828Z,18.64
2022-08-23T03:20:02.851Z,18.64
2022-08-23T03:21:02.873Z,18.66
2022-08-23T03:22:02.891Z,18.73
2022-08-23T03:23:02.913Z,18.67
2022-08-23T03:24:05.735Z,18.70
2022-08-23T03:25:02.956Z,18.64
2022-08-23T03:26:02.977Z,18.61
2022-08-23T03:27:02.998Z,18.64
2022-08-23T03:28:03.017Z,18.67
2022-08-23T03:29:03.039Z,18.66
2022-08-23T03:30:03.061Z,18.66
2022-08-23T03:31:03.112Z,18.63
2022-08-23T03:32:03.104Z,18.64
2022-08-23T03:33:03.158Z,18.61
2022-08-23T03:34:03.146Z,18.61
2022-08-23T03:35:03.170Z,18.60
2022-08-23T03:36:03.190Z,18.61
2022-08-23T03:37:03.211Z,18.61
2022-08-23T03:38:03.390Z,18.66
2022-08-23T03:39:03.251Z,18.60
2022-08-23T03:40:03.338Z,18.63
2022-08-23T03:41:03.302Z,18.63
2022-08-23T03:42:03.316Z,18.63
2022-08-23T03:43:03.341Z,18.63
2022-08-23T03:44:03.359Z,18.58
2022-08-23T03:45:03.382Z,18.66
2022-08-23T03:46:03.400Z,18.58
2022-08-23T03:47:03.422Z,18.61
2022-08-23T03:48:03.446Z,18.60
2022-08-23T03:49:03.465Z,18.60
2022-08-23T03:50:03.484Z,18.58
2022-08-23T03:51:03.508Z,18.58
2022-08-23T03:52:03.528Z,18.61
2022-08-23T03:53:03.549Z,18.60
2022-08-23T03:54:03.570Z,18.57
2022-08-23T03:55:03.591Z,18.57
2022-08-23T03:56:03.619Z,18.60
2022-08-23T03:57:03.635Z,18.63
2022-08-23T03:58:03.655Z,18.60
2022-08-23T03:59:03.674Z,18.52
2022-08-23T04:00:03.699Z,18.57
2022-08-23T04:01:03.718Z,18.60
2022-08-23T04:02:03.766Z,18.60
2022-08-23T04:03:03.760Z,18.58
2022-08-23T04:04:03.788Z,18.60
2022-08-23T04:05:03.802Z,18.58
2022-08-23T04:06:03.825Z,18.64
2022-08-23T04:07:03.848Z,18.61
2022-08-23T04:08:03.867Z,18.57
2022-08-23T04:09:03.890Z,18.58
2022-08-23T04:10:03.909Z,18.61
2022-08-23T04:11:03.930Z,18.55
2022-08-23T04:12:03.952Z,18.64
2022-08-23T04:13:03.976Z,18.58
2022-08-23T04:14:03.995Z,18.57
2022-08-23T04:15:04.017Z,18.58
2022-08-23T04:16:04.033Z,18.51
2022-08-23T04:17:04.058Z,18.61
2022-08-23T04:18:04.077Z,18.57
2022-08-23T04:19:04.101Z,18.63
2022-08-23T04:20:04.121Z,18.61
2022-08-23T04:21:04.145Z,18.60
2022-08-23T04:22:04.169Z,18.58
2022-08-23T04:23:04.183Z,18.61
2022-08-23T04:24:04.207Z,18.53
2022-08-23T04:25:04.227Z,18.60
2022-08-23T04:26:04.248Z,18.63
2022-08-23T04:27:04.269Z,18.60
2022-08-23T04:28:04.295Z,18.57
2022-08-23T04:29:04.313Z,18.58
2022-08-23T04:30:04.332Z,18.60
2022-08-23T04:31:04.353Z,18.58
2022-08-23T04:32:05.482Z,18.60
2022-08-23T04:33:04.396Z,18.58
2022-08-23T04:34:04.417Z,18.63
2022-08-23T04:35:04.443Z,18.58
2022-08-23T04:36:04.459Z,18.60
2022-08-23T04:37:04.481Z,18.55
2022-08-23T04:38:04.503Z,18.60
2022-08-23T04:39:04.547Z,18.63
2022-08-23T04:40:04.592Z,18.61
2022-08-23T04:41:04.565Z,18.66
2022-08-23T04:42:04.597Z,18.61
2022-08-23T04:43:04.608Z,18.66
2022-08-23T04:44:04.628Z,18.66
2022-08-23T04:45:04.652Z,18.66
2022-08-23T04:46:04.671Z,18.67
2022-08-23T04:47:04.694Z,18.61
2022-08-23T04:48:04.714Z,18.68
2022-08-23T04:49:04.735Z,18.68
2022-08-23T04:50:04.756Z,18.70
2022-08-23T04:51:04.776Z,18.58
2022-08-23T04:52:04.798Z,18.61
2022-08-23T04:53:04.821Z,18.66
2022-08-23T04:54:04.838Z,18.63
2022-08-23T04:55:04.863Z,18.61
2022-08-23T04:56:04.891Z,18.61
2022-08-23T04:57:04.906Z,18.64
2022-08-23T04:58:04.943Z,18.63
2022-08-23T04:59:04.952Z,18.67
2022-08-23T05:00:04.969Z,18.67
2022-08-23T05:01:05.103Z,18.60
2022-08-23T05:02:05.017Z,18.63
2022-08-23T05:03:05.034Z,18.66
2022-08-23T05:04:05.054Z,18.68
2022-08-23T05:05:05.077Z,18.70
2022-08-23T05:06:05.102Z,18.64
2022-08-23T05:07:05.117Z,18.64
2022-08-23T05:08:05.139Z,18.63
2022-08-23T05:09:05.160Z,18.66
2022-08-23T05:10:05.181Z,18.74
2022-08-23T05:11:05.220Z,18.71
2022-08-23T05:12:05.223Z,18.64
2022-08-23T05:13:05.243Z,18.82
2022-08-23T05:14:05.267Z,18.71
2022-08-23T05:15:05.287Z,18.82
2022-08-23T05:16:05.308Z,18.83
2022-08-23T05:17:05.331Z,18.81
2022-08-23T05:18:05.351Z,18.71
2022-08-23T05:19:05.372Z,18.82
2022-08-23T05:20:05.394Z,18.74
2022-08-23T05:21:05.415Z,18.86
2022-08-23T05:22:05.436Z,18.76
2022-08-23T05:23:05.458Z,18.78
2022-08-23T05:24:05.479Z,18.78
2022-08-23T05:25:05.502Z,18.73
2022-08-23T05:26:05.521Z,18.73
2022-08-23T05:27:05.544Z,18.88
2022-08-23T05:28:05.565Z,18.81
2022-08-23T05:29:05.586Z,18.83
2022-08-23T05:30:05.614Z,18.85
2022-08-23T05:31:05.633Z,18.83
2022-08-23T05:32:05.651Z,18.78
2022-08-23T05:33:05.673Z,18.81
2022-08-23T05:34:05.693Z,18.86
2022-08-23T05:35:05.714Z,18.83
2022-08-23T05:36:05.736Z,18.91
2022-08-23T05:37:05.759Z,18.97
2022-08-23T05:38:05.780Z,19.00
2022-08-23T05:39:05.800Z,18.96
2022-08-23T05:40:05.848Z,18.96
2022-08-23T05:41:07.045Z,19.15
2022-08-23T05:42:05.865Z,19.07
2022-08-23T05:43:05.889Z,19.12
2022-08-23T05:44:05.910Z,19.12
2022-08-23T05:45:06.242Z,19.19
2022-08-23T05:46:05.951Z,19.19
2022-08-23T05:47:06.873Z,19.26
2022-08-23T05:48:05.996Z,19.27
2022-08-23T05:49:06.017Z,19.29
2022-08-23T05:50:06.039Z,19.35
2022-08-23T05:51:06.059Z,19.38
2022-08-23T05:52:06.081Z,19.37
2022-08-23T05:53:06.106Z,19.37
2022-08-23T05:54:06.125Z,19.44
2022-08-23T05:55:06.149Z,19.55
2022-08-23T05:56:06.171Z,19.57
2022-08-23T05:57:06.191Z,19.57
2022-08-23T05:58:06.212Z,19.60
2022-08-23T05:59:06.235Z,19.67
2022-08-23T06:00:06.257Z,19.71
2022-08-23T06:01:06.309Z,19.75
2022-08-23T06:02:06.302Z,19.77
2022-08-23T06:03:06.327Z,19.81
2022-08-23T06:04:06.347Z,19.87
2022-08-23T06:05:06.369Z,20.00
2022-08-23T06:06:06.390Z,20.07
2022-08-23T06:07:06.412Z,20.11
2022-08-23T06:08:06.434Z,20.17
2022-08-23T06:09:06.461Z,20.24
2022-08-23T06:10:06.484Z,20.24
2022-08-23T06:11:06.501Z,20.33
2022-08-23T06:12:06.528Z,20.34
2022-08-23T06:13:06.549Z,20.33
2022-08-23T06:14:06.601Z,20.46
2022-08-23T06:15:06.593Z,20.50
2022-08-23T06:16:15.128Z,20.58
2022-08-23T06:17:06.635Z,20.53
2022-08-23T06:18:06.659Z,20.59
2022-08-23T06:19:06.682Z,20.60
2022-08-23T06:20:06.755Z,20.66
2022-08-23T06:21:06.726Z,20.66
2022-08-23T06:22:06.755Z,20.68
2022-08-23T06:23:06.780Z,20.70
2022-08-23T06:24:06.795Z,20.74
2022-08-23T06:25:09.594Z,20.74
2022-08-23T06:26:06.839Z,20.75
2022-08-23T06:27:06.863Z,20.82
2022-08-23T06:28:06.886Z,20.95
2022-08-23T06:29:06.949Z,20.82
2022-08-23T06:30:06.934Z,20.90
2022-08-23T06:31:06.980Z,20.96
2022-08-23T06:32:07.004Z,20.93
2022-08-23T06:33:06.998Z,21.05
2022-08-23T06:34:07.077Z,21.07
2022-08-23T06:35:33.003Z,21.13
2022-08-23T06:36:07.067Z,21.17
2022-08-23T06:37:07.090Z,21.26
2022-08-23T06:38:07.114Z,21.23
2022-08-23T06:39:07.140Z,21.23
2022-08-23T06:40:07.202Z,21.29
2022-08-23T06:41:07.187Z,21.26
2022-08-23T06:42:22.217Z,21.26
2022-08-23T06:43:07.232Z,21.25
2022-08-23T06:44:07.254Z,21.33
2022-08-23T06:45:07.276Z,21.33
2022-08-23T06:46:07.301Z,21.33
2022-08-23T06:47:07.408Z,21.40
2022-08-23T06:48:07.346Z,21.33
2022-08-23T06:49:07.375Z,21.47
2022-08-23T06:50:07.392Z,21.41
2022-08-23T06:51:07.415Z,21.44
2022-08-23T06:52:07.439Z,21.44
2022-08-23T06:53:09.931Z,21.47
2022-08-23T06:54:07.486Z,21.51
2022-08-23T06:55:11.759Z,21.50
2022-08-23T06:56:07.532Z,21.56
2022-08-23T06:57:07.553Z,21.53
2022-08-23T06:58:07.579Z,21.59
2022-08-23T06:59:07.601Z,21.60
2022-08-23T07:00:07.625Z,21.69
2022-08-23T07:01:14.635Z,21.66
2022-08-23T07:02:07.795Z,21.74
2022-08-23T07:03:07.718Z,21.77
2022-08-23T07:04:07.717Z,21.77
2022-08-23T07:05:07.743Z,21.81
2022-08-23T07:06:07.764Z,21.84
2022-08-23T07:07:11.371Z,21.89
2022-08-23T07:08:07.812Z,21.92
2022-08-23T07:09:07.836Z,21.89
2022-08-23T07:10:07.858Z,21.94
2022-08-23T07:11:07.884Z,22.01
2022-08-23T07:12:07.908Z,22.15
2022-08-23T07:13:07.931Z,22.06
2022-08-23T07:14:07.952Z,22.10
2022-08-23T07:15:07.980Z,22.19
2022-08-23T07:16:08.029Z,22.22
2022-08-23T07:17:08.024Z,22.28
2022-08-23T07:18:08.048Z,22.37
2022-08-23T07:19:08.071Z,22.37
2022-08-23T07:20:08.104Z,22.41
2022-08-23T07:21:08.119Z,22.43
2022-08-23T07:22:08.145Z,22.56
2022-08-23T07:23:08.170Z,22.59
2022-08-23T07:24:08.192Z,22.59
2022-08-23T07:25:08.222Z,22.56
2022-08-23T07:26:08.238Z,22.62
2022-08-23T07:27:08.263Z,22.68
2022-08-23T07:28:11.622Z,22.71
2022-08-23T07:29:08.312Z,22.81
2022-08-23T07:30:08.334Z,22.76
2022-08-23T07:31:14.513Z,22.78
2022-08-23T07:32:08.414Z,22.80
2022-08-23T07:33:08.415Z,22.76
2022-08-23T07:34:08.442Z,22.86
2022-08-23T07:35:08.456Z,22.88
2022-08-23T07:36:08.492Z,22.92
2022-08-23T07:37:15.183Z,22.95
2022-08-23T07:38:08.526Z,22.95
2022-08-23T07:39:08.553Z,22.95
2022-08-23T07:40:08.637Z,22.95
2022-08-23T07:41:08.601Z,22.98
2022-08-23T07:42:22.711Z,22.98
2022-08-23T07:43:08.657Z,22.98
2022-08-23T07:44:08.688Z,23.08
2022-08-23T07:45:10.065Z,23.13
2022-08-23T07:46:08.755Z,23.18
2022-08-23T07:47:08.749Z,23.20
2022-08-23T07:48:08.772Z,23.17
2022-08-23T07:49:08.807Z,23.25
2022-08-23T07:50:08.821Z,23.34
2022-08-23T07:51:08.845Z,23.37
2022-08-23T07:52:08.869Z,23.47
2022-08-23T07:53:08.921Z,23.44
2022-08-23T07:54:08.918Z,23.48
2022-08-23T07:55:08.943Z,23.51
2022-08-23T07:56:08.973Z,23.58
2022-08-23T07:57:09.012Z,23.64
2022-08-23T07:58:09.023Z,23.66
2022-08-23T07:59:09.045Z,23.70
2022-08-23T08:00:09.069Z,23.79
2022-08-23T08:01:09.096Z,23.76
2022-08-23T08:02:09.862Z,23.77
2022-08-23T08:03:09.224Z,23.74
2022-08-23T08:04:09.168Z,23.88
2022-08-23T08:05:09.197Z,23.82
2022-08-23T08:06:09.222Z,23.74
2022-08-23T08:07:19.522Z,23.85
2022-08-23T08:08:09.268Z,23.89
2022-08-23T08:09:09.295Z,23.91
2022-08-23T08:10:09.318Z,23.88
2022-08-23T08:11:09.342Z,23.91
2022-08-23T08:12:09.368Z,23.92
2022-08-23T08:13:09.394Z,23.92
2022-08-23T08:14:09.418Z,23.91
2022-08-23T08:15:09.444Z,23.91
2022-08-23T08:16:09.514Z,23.96
2022-08-23T08:17:09.495Z,24.00
2022-08-23T08:18:09.522Z,24.07
2022-08-23T08:19:09.545Z,24.13
2022-08-23T08:20:09.570Z,24.14
2022-08-23T08:21:09.594Z,24.14
2022-08-23T08:22:09.618Z,24.18
2022-08-23T08:23:09.645Z,24.24
2022-08-23T08:24:09.669Z,24.19
2022-08-23T08:25:09.695Z,24.26
2022-08-23T08:26:09.720Z,24.37
2022-08-23T08:27:09.745Z,24.41
2022-08-23T08:28:15.602Z,24.51
2022-08-23T08:29:10.509Z,24.43
2022-08-23T08:30:09.820Z,24.48
2022-08-23T08:31:09.927Z,24.43
2022-08-23T08:32:13.711Z,24.48
2022-08-23T08:33:09.902Z,24.58
2022-08-23T08:34:09.922Z,24.51
2022-08-23T08:35:09.949Z,24.59
2022-08-23T08:36:09.975Z,24.62
2022-08-23T08:37:09.999Z,24.51
2022-08-23T08:38:10.025Z,24.56
2022-08-23T08:39:10.425Z,24.63
2022-08-23T08:40:10.107Z,24.68
2022-08-23T08:41:10.102Z,24.74
2022-08-23T08:42:10.129Z,24.78
2022-08-23T08:43:10.153Z,24.81
2022-08-23T08:44:11.954Z,24.78
2022-08-23T08:45:10.206Z,24.79
2022-08-23T08:46:10.272Z,24.93
2022-08-23T08:47:10.258Z,24.93
2022-08-23T08:48:13.399Z,24.99
2022-08-23T08:49:10.308Z,24.97
2022-08-23T08:50:10.332Z,25.07
2022-08-23T08:51:10.366Z,24.94
2022-08-23T08:52:10.385Z,25.00
2022-08-23T08:53:10.411Z,25.06
2022-08-23T08:54:10.448Z,25.03
2022-08-23T08:55:10.463Z,25.18
2022-08-23T08:56:10.490Z,25.21
2022-08-23T08:57:10.518Z,25.26
2022-08-23T08:58:10.549Z,25.33
2022-08-23T08:59:10.570Z,25.40
2022-08-23T09:00:10.593Z,25.39
2022-08-23T09:01:10.622Z,25.51
2022-08-23T09:02:20.080Z,25.49
2022-08-23T09:03:10.713Z,25.52
2022-08-23T09:04:10.700Z,25.52
2022-08-23T09:05:10.734Z,25.48
2022-08-23T09:06:11.717Z,25.59
2022-08-23T09:07:10.779Z,25.56
2022-08-23T09:08:10.805Z,25.54
2022-08-23T09:09:10.830Z,25.59
2022-08-23T09:10:10.858Z,25.66
2022-08-23T09:11:10.884Z,25.66
2022-08-23T09:12:10.913Z,25.58
2022-08-23T09:13:11.440Z,25.58
2022-08-23T09:14:10.965Z,25.62
2022-08-23T09:15:10.990Z,25.59
2022-08-23T09:16:11.052Z,25.66
2022-08-23T09:17:11.050Z,25.66
2022-08-23T09:18:11.068Z,25.66
2022-08-23T09:19:11.097Z,25.66
2022-08-23T09:20:11.121Z,25.71
2022-08-23T09:21:11.156Z,25.71
2022-08-23T09:22:11.174Z,25.80
2022-08-23T09:23:11.202Z,25.71
2022-08-23T09:24:11.256Z,25.74
2022-08-23T09:25:11.257Z,25.86
2022-08-23T09:26:11.283Z,25.86
2022-08-23T09:27:11.307Z,25.99
2022-08-23T09:28:11.334Z,25.93
2022-08-23T09:29:11.364Z,26.10
2022-08-23T09:30:11.388Z,26.06
2022-08-23T09:31:11.462Z,26.18
2022-08-23T09:32:14.338Z,26.18
2022-08-23T09:33:11.472Z,26.22
2022-08-23T09:34:11.495Z,26.31
2022-08-23T09:35:11.531Z,26.39
2022-08-23T09:36:11.550Z,26.45
2022-08-23T09:37:11.577Z,26.59
2022-08-23T09:38:11.604Z,26.63
2022-08-23T09:39:11.632Z,26.76
2022-08-23T09:40:11.697Z,26.78
2022-08-23T09:41:11.687Z,26.79
2022-08-23T09:42:11.713Z,26.73
2022-08-23T09:43:11.740Z,26.82
2022-08-23T09:44:11.781Z,26.85
2022-08-23T09:45:11.800Z,26.82
2022-08-23T09:46:11.885Z,26.92
2022-08-23T09:47:11.864Z,26.93
2022-08-23T09:48:11.881Z,27.00
2022-08-23T09:49:11.920Z,26.96
2022-08-23T09:50:11.935Z,26.96
2022-08-23T09:51:11.965Z,26.98
2022-08-23T09:52:12.864Z,27.03
2022-08-23T09:53:12.020Z,27.00
2022-08-23T09:54:12.044Z,27.05
2022-08-23T09:55:12.073Z,27.04
2022-08-23T09:56:12.103Z,27.11
2022-08-23T09:57:12.130Z,26.97
2022-08-23T09:58:12.156Z,27.04
2022-08-23T09:59:12.185Z,27.03
2022-08-23T10:00:12.212Z,27.08
2022-08-23T10:01:12.274Z,27.08
2022-08-23T10:02:12.311Z,27.19
2022-08-23T10:03:12.293Z,27.23
2022-08-23T10:04:12.369Z,27.22
2022-08-23T10:05:14.782Z,27.25
2022-08-23T10:06:12.384Z,27.33
2022-08-23T10:07:12.405Z,27.30
2022-08-23T10:08:12.435Z,27.25
2022-08-23T10:09:12.462Z,27.35
2022-08-23T10:10:12.488Z,27.28
2022-08-23T10:11:12.516Z,27.41
2022-08-23T10:12:12.544Z,27.40
2022-08-23T10:13:12.572Z,27.41
2022-08-23T10:14:12.600Z,27.44
2022-08-23T10:15:12.630Z,27.43
2022-08-23T10:16:12.739Z,27.48
2022-08-23T10:17:12.684Z,27.44
2022-08-23T10:18:12.709Z,27.53
2022-08-23T10:19:12.752Z,27.47
2022-08-23T10:20:12.766Z,27.50
2022-08-23T10:21:14.670Z,27.58
2022-08-23T10:22:12.822Z,27.66
2022-08-23T10:23:12.850Z,27.66
2022-08-23T10:24:12.879Z,27.71
2022-08-23T10:25:12.908Z,27.60
2022-08-23T10:26:12.934Z,27.67
2022-08-23T10:27:12.964Z,27.67
2022-08-23T10:28:12.992Z,27.67
2022-08-23T10:29:13.019Z,27.75
2022-08-23T10:30:13.147Z,27.67
2022-08-23T10:31:13.112Z,27.68
2022-08-23T10:32:13.102Z,27.72
2022-08-23T10:33:18.305Z,27.72
2022-08-23T10:34:13.159Z,27.79
2022-08-23T10:35:13.187Z,27.78
2022-08-23T10:36:13.214Z,27.83
2022-08-23T10:37:13.245Z,27.88
2022-08-23T10:38:13.269Z,28.00
2022-08-23T10:39:13.299Z,27.93
2022-08-23T10:40:13.434Z,28.00
2022-08-23T10:41:13.356Z,28.06
2022-08-23T10:42:13.383Z,28.04
2022-08-23T10:43:13.411Z,28.04
2022-08-23T10:44:13.443Z,28.09
2022-08-23T10:45:13.468Z,28.06
2022-08-23T10:46:13.531Z,28.03
2022-08-23T10:47:13.525Z,28.01
2022-08-23T10:48:13.552Z,28.01
2022-08-23T10:49:13.582Z,27.85
2022-08-23T10:50:13.607Z,27.95
2022-08-23T10:51:13.639Z,27.85
2022-08-23T10:52:13.664Z,27.95
2022-08-23T10:53:13.696Z,27.97
2022-08-23T10:54:13.728Z,28.01
2022-08-23T10:55:13.749Z,28.01
2022-08-23T10:56:13.778Z,28.06
2022-08-23T10:57:13.805Z,28.13
2022-08-23T10:58:13.833Z,28.09
2022-08-23T10:59:13.860Z,28.18
2022-08-23T11:00:13.895Z,28.19
2022-08-23T11:01:13.993Z,28.31
2022-08-23T11:02:13.974Z,28.25
2022-08-23T11:03:13.995Z,28.35
2022-08-23T11:04:14.005Z,28.41
2022-08-23T11:05:14.035Z,28.50
2022-08-23T11:06:14.062Z,28.55
2022-08-23T11:07:14.091Z,28.50
2022-08-23T11:08:14.121Z,28.62
2022-08-23T11:09:14.151Z,28.53
2022-08-23T11:10:16.570Z,28.53
2022-08-23T11:11:14.208Z,28.53
2022-08-23T11:12:14.246Z,28.40
2022-08-23T11:13:14.271Z,28.53
2022-08-23T11:14:14.293Z,28.53
2022-08-23T11:15:14.342Z,28.38
2022-08-23T11:16:14.393Z,28.38
2022-08-23T11:17:14.381Z,28.22
2022-08-23T11:18:14.408Z,28.35
2022-08-23T11:19:14.438Z,28.33
2022-08-23T11:20:14.467Z,28.31
2022-08-23T11:21:14.497Z,28.33
2022-08-23T11:22:14.526Z,28.35
2022-08-23T11:23:14.554Z,28.38
2022-08-23T11:24:14.584Z,28.41
2022-08-23T11:25:14.611Z,28.46
2022-08-23T11:26:14.641Z,28.55
2022-08-23T11:27:14.669Z,28.53
2022-08-23T11:28:14.702Z,28.53
2022-08-23T11:29:14.728Z,28.56
2022-08-23T11:30:14.755Z,28.53
2022-08-23T11:31:14.829Z,28.53
2022-08-23T11:32:14.813Z,28.49
2022-08-23T11:33:14.850Z,28.62
2022-08-23T11:34:15.930Z,28.62
2022-08-23T11:35:14.901Z,28.67
2022-08-23T11:36:14.929Z,28.67
2022-08-23T11:37:14.958Z,28.75
2022-08-23T11:38:14.986Z,28.83
2022-08-23T11:39:20.519Z,29.02
2022-08-23T11:40:18.155Z,28.97
2022-08-23T11:41:15.075Z,29.06
2022-08-23T11:42:15.105Z,29.20
2022-08-23T11:43:15.134Z,29.35
2022-08-23T11:44:15.163Z,29.30
2022-08-23T11:45:15.194Z,29.30
2022-08-23T11:46:15.260Z,29.39
2022-08-23T11:47:15.251Z,29.39
2022-08-23T11:48:15.281Z,29.49
2022-08-23T11:49:15.313Z,29.74
2022-08-23T11:50:15.339Z,29.83
2022-08-23T11:51:15.369Z,30.06
2022-08-23T11:52:15.400Z,30.17
2022-08-23T11:53:15.432Z,30.36
2022-08-23T11:54:15.461Z,30.46
2022-08-23T11:55:15.492Z,30.36
2022-08-23T11:56:15.523Z,30.31
2022-08-23T11:57:15.556Z,30.31
2022-08-23T11:58:15.584Z,30.32
2022-08-23T11:59:15.615Z,30.18
2022-08-23T12:00:17.518Z,30.31
2022-08-23T12:01:15.678Z,30.33
2022-08-23T12:02:16.142Z,30.39
2022-08-23T12:03:15.838Z,30.61
2022-08-23T12:04:15.768Z,30.76
2022-08-23T12:05:15.800Z,30.99
2022-08-23T12:06:15.829Z,31.05
2022-08-23T12:07:15.861Z,31.05
2022-08-23T12:08:15.891Z,31.13
2022-08-23T12:09:15.925Z,31.15
2022-08-23T12:10:15.954Z,31.17
2022-08-23T12:11:15.988Z,31.29
2022-08-23T12:12:16.018Z,31.32
2022-08-23T12:13:16.048Z,31.35
2022-08-23T12:14:16.079Z,31.35
2022-08-23T12:15:16.109Z,31.37
2022-08-23T12:16:17.475Z,31.37
2022-08-23T12:17:16.936Z,31.41
2022-08-23T12:18:19.276Z,31.48
2022-08-23T12:19:16.249Z,31.62
2022-08-23T12:20:17.186Z,31.70
2022-08-23T12:21:16.318Z,31.81
2022-08-23T12:22:16.334Z,32.12
2022-08-23T12:23:16.370Z,32.16
2022-08-23T12:24:16.399Z,32.31
2022-08-23T12:25:16.430Z,32.27
2022-08-23T12:26:16.462Z,32.11
2022-08-23T12:27:16.493Z,31.97
2022-08-23T12:28:16.530Z,31.67
2022-08-23T12:29:16.561Z,31.54
2022-08-23T12:30:16.594Z,31.35
2022-08-23T12:31:19.341Z,31.15
2022-08-23T12:32:16.659Z,31.07
2022-08-23T12:33:16.696Z,30.91
2022-08-23T12:34:16.718Z,30.71
2022-08-23T12:35:16.748Z,30.65
2022-08-23T12:36:16.868Z,30.55
2022-08-23T12:37:16.812Z,30.44
2022-08-23T12:38:16.840Z,30.31
2022-08-23T12:39:16.870Z,30.29
2022-08-23T12:40:16.930Z,30.32
2022-08-23T12:41:16.931Z,30.36
2022-08-23T12:42:16.962Z,30.33
2022-08-23T12:43:19.786Z,30.74
2022-08-23T12:44:17.021Z,30.96
2022-08-23T12:45:17.052Z,30.93
2022-08-23T12:46:17.143Z,30.71
2022-08-23T12:47:17.111Z,30.74
2022-08-23T12:48:17.146Z,30.70
2022-08-23T12:49:17.178Z,30.62
2022-08-23T12:50:17.207Z,30.49
2022-08-23T12:51:17.331Z,30.44
2022-08-23T12:52:17.266Z,30.40
2022-08-23T12:53:17.300Z,30.23